Time;durP1;ratioP1;P1;durP2;ratioP2;P2;SDS_P1;SDS_P2;PMS_P1;PMS_P2;Temp;Humidity;BMP_temperature;BMP_pressure;BME280_temperature;BME280_humidity;BME280_pressure;Samples;Min_cycle;Max_cycle;Signal;HPM_P1;HPM_P2
2023/06/09 00:02:22;;;;;;;13.95;9.50;;;;;;;21.94;60.36;99344.19;4422616;32;20102;-86
2023/06/09 00:04:48;;;;;;;13.43;10.30;;;;;;;21.83;60.36;99338.97;4393635;32;20102;-86
2023/06/09 00:07:16;;;;;;;18.60;10.18;;;;;;;21.83;60.36;99342.44;4421262;32;20501;-86
2023/06/09 00:09:45;;;;;;;13.50;9.75;;;;;;;21.83;60.36;99350.41;4393744;32;20174;-85
2023/06/09 00:12:12;;;;;;;16.62;8.63;;;;;;;21.85;60.35;99348.47;4407269;32;20155;-85
2023/06/09 00:14:37;;;;;;;9.73;6.25;;;;;;;21.84;60.36;99352.06;4409022;32;20116;-86
2023/06/09 00:17:02;;;;;;;8.20;4.78;;;;;;;21.75;60.35;99340.44;4380756;32;20145;-88
2023/06/09 00:19:29;;;;;;;6.20;4.20;;;;;;;21.63;60.34;99338.84;4399249;32;20114;-88
2023/06/09 00:21:54;;;;;;;7.75;4.15;;;;;;;21.50;60.35;99340.81;4395057;32;20097;-87
2023/06/09 00:24:21;;;;;;;9.50;4.53;;;;;;;21.44;60.34;99346.63;4406212;32;20157;-87
2023/06/09 00:26:50;;;;;;;6.37;3.87;;;;;;;21.39;60.33;99354.97;4392733;32;20497;-87
2023/06/09 00:29:16;;;;;;;9.20;4.37;;;;;;;21.36;60.33;99355.22;4400798;32;20102;-86
2023/06/09 00:31:42;;;;;;;5.95;4.20;;;;;;;21.32;60.33;99353.81;4399916;32;20141;-86
2023/06/09 00:34:07;;;;;;;8.15;4.18;;;;;;;21.06;60.32;99355.91;4408732;32;20143;-86
2023/06/09 00:36:33;;;;;;;16.37;4.28;;;;;;;20.99;60.31;99352.06;4408442;32;20090;-86
2023/06/09 00:38:58;;;;;;;7.97;4.50;;;;;;;20.76;60.30;99353.91;4405878;32;20167;-87
2023/06/09 00:41:24;;;;;;;11.60;4.43;;;;;;;20.58;60.29;99358.03;4415309;32;20113;-86
2023/06/09 00:43:50;;;;;;;7.57;4.60;;;;;;;20.64;60.30;99346.13;4405740;32;20534;-84
2023/06/09 00:46:16;;;;;;;5.35;4.07;;;;;;;20.97;60.32;99335.47;4422770;32;20248;-87
2023/06/09 00:48:41;;;;;;;8.68;4.10;;;;;;;21.01;60.31;99321.03;4406196;32;20182;-86
2023/06/09 00:51:06;;;;;;;6.35;4.30;;;;;;;20.90;60.31;99312.28;4393917;32;20151;-86
2023/06/09 00:53:32;;;;;;;5.47;3.45;;;;;;;20.70;60.31;99322.69;4393168;32;34310;-86
2023/06/09 00:55:57;;;;;;;7.82;4.72;;;;;;;20.79;60.31;99324.56;4394671;32;20391;-86
2023/06/09 00:58:23;;;;;;;8.02;4.07;;;;;;;20.59;60.29;99322.72;4394030;32;21119;-86
2023/06/09 01:00:48;;;;;;;6.87;4.00;;;;;;;20.46;60.29;99317.53;4382001;32;20127;-85
2023/06/09 01:03:14;;;;;;;9.30;4.12;;;;;;;20.44;60.29;99310.72;4379671;32;20407;-86
2023/06/09 01:05:44;;;;;;;7.62;4.15;;;;;;;20.42;60.29;99307.34;4408402;32;20165;-85
2023/06/09 01:08:25;;;;;;;5.93;4.10;;;;;;;20.47;60.29;99298.06;4379342;32;20185;-85
2023/06/09 01:11:22;;;;;;;5.68;4.00;;;;;;;20.39;60.28;99300.47;4394565;32;20113;-85
2023/06/09 01:14:05;;;;;;;7.05;4.18;;;;;;;20.28;60.28;99292.53;4399570;32;20442;-86
2023/06/09 01:16:52;;;;;;;13.57;4.37;;;;;;;20.18;60.28;99276.56;4399260;32;20113;-85
2023/06/09 01:19:31;;;;;;;5.78;3.83;;;;;;;20.05;60.27;99275.84;4407491;32;20133;-86
2023/06/09 01:21:59;;;;;;;7.57;3.97;;;;;;;20.18;60.27;99267.81;4386957;32;20102;-86
2023/06/09 01:25:05;;;;;;;8.30;3.85;;;;;;;20.08;60.27;99266.84;4387030;32;20090;-86
2023/06/09 01:27:31;;;;;;;5.80;4.00;;;;;;;20.12;60.27;99263.03;4350845;33;20100;-86
2023/06/09 01:29:58;;;;;;;6.60;4.15;;;;;;;19.86;60.26;99271.16;4373877;32;20142;-87
2023/06/09 01:32:24;;;;;;;6.40;4.40;;;;;;;19.72;60.25;99267.94;4399479;32;20719;-87
2023/06/09 01:34:50;;;;;;;6.65;3.85;;;;;;;19.69;60.24;99273.44;4399325;32;20102;-87
2023/06/09 01:37:15;;;;;;;7.15;4.78;;;;;;;19.78;60.25;99267.44;4398899;32;20404;-86
2023/06/09 01:39:40;;;;;;;7.80;4.62;;;;;;;19.82;60.25;99269.72;4398745;32;20098;-86
2023/06/09 01:42:06;;;;;;;7.68;4.68;;;;;;;19.81;60.26;99270.69;4398909;32;20138;-86
2023/06/09 01:44:34;;;;;;;10.02;5.00;;;;;;;19.95;60.26;99274.06;4399034;32;20488;-86
2023/06/09 01:46:59;;;;;;;9.25;4.80;;;;;;;19.95;60.26;99274.06;4386690;32;20085;-86
2023/06/09 01:49:29;;;;;;;6.72;4.68;;;;;;;19.91;60.26;99276.94;4398474;32;20478;-86
2023/06/09 01:52:30;;;;;;;;;;;;;;;19.90;60.26;99275.28;4386989;32;20110;-86
2023/06/09 01:54:58;;;;;;;7.53;4.57;;;;;;;19.96;60.26;99273.09;4365277;32;20439;-86
2023/06/09 01:57:31;;;;;;;7.47;4.45;;;;;;;20.01;60.26;99278.84;4377467;32;20434;-87
2023/06/09 01:59:59;;;;;;;10.48;5.40;;;;;;;20.06;60.26;99279.34;4373925;32;20152;-86
2023/06/09 02:02:25;;;;;;;7.60;4.55;;;;;;;20.20;60.27;99271.16;4386237;32;20128;-87
2023/06/09 02:04:51;;;;;;;8.13;4.65;;;;;;;19.95;60.26;99280.19;4399122;32;20098;-86
2023/06/09 02:07:17;;;;;;;6.80;4.78;;;;;;;20.12;60.27;99287.63;4408542;32;20070;-87
2023/06/09 02:09:46;;;;;;;7.65;5.05;;;;;;;20.28;60.28;99278.47;4399205;32;20098;-86
2023/06/09 02:12:11;;;;;;;8.88;4.80;;;;;;;19.98;60.26;99287.03;4386113;32;20479;-86
2023/06/09 02:14:37;;;;;;;11.45;5.37;;;;;;;19.95;60.26;99287.28;4385844;32;20115;-86
2023/06/09 02:17:02;;;;;;;8.02;4.75;;;;;;;19.82;60.25;99287.38;4398573;32;20106;-86
2023/06/09 02:19:28;;;;;;;6.90;4.90;;;;;;;19.93;60.25;99296.16;4386052;32;20102;-87
2023/06/09 02:21:54;;;;;;;8.57;5.12;;;;;;;19.80;60.25;99292.78;4412354;32;20124;-85
2023/06/09 02:24:19;;;;;;;6.75;4.57;;;;;;;19.69;60.24;99294.56;4395159;32;36547;-87
2023/06/09 02:26:45;;;;;;;5.85;4.20;;;;;;;19.67;60.25;99293.84;4395806;32;20371;-87
2023/06/09 02:29:10;;;;;;;6.32;4.37;;;;;;;19.87;60.26;99296.62;4395733;32;20509;-87
2023/06/09 02:31:36;;;;;;;6.00;4.20;;;;;;;19.71;60.25;99293.50;4408787;32;30932;-87
2023/06/09 02:34:02;;;;;;;6.07;4.60;;;;;;;19.66;60.24;99308.84;4395713;32;20086;-87
2023/06/09 02:36:27;;;;;;;6.78;4.07;;;;;;;19.55;60.24;99304.38;4395650;32;20355;-87
2023/06/09 02:38:53;;;;;;;5.62;4.12;;;;;;;19.61;60.24;99310.97;4395670;32;20141;-87
2023/06/09 02:41:18;;;;;;;7.32;3.95;;;;;;;19.59;60.24;99311.09;4395126;32;23535;-87
2023/06/09 02:43:43;;;;;;;5.25;3.22;;;;;;;19.54;60.25;99310.59;4395376;32;20136;-87
2023/06/09 02:46:09;;;;;;;10.27;3.95;;;;;;;19.69;60.24;99318.34;4395535;32;20070;-86
2023/06/09 02:48:35;;;;;;;6.35;3.85;;;;;;;19.98;60.26;99302.88;4395437;32;20094;-87
2023/06/09 02:51:00;;;;;;;5.30;3.37;;;;;;;19.97;60.26;99298.56;4395635;32;20454;-87
2023/06/09 02:53:28;;;;;;;6.22;4.07;;;;;;;19.87;60.26;99299.28;4395447;32;20120;-87
2023/06/09 02:55:53;;;;;;;9.07;4.07;;;;;;;19.86;60.26;99297.56;4395891;32;20118;-87
2023/06/09 02:58:19;;;;;;;6.82;4.03;;;;;;;19.59;60.24;99300.53;4392046;32;20114;-87
2023/06/09 03:00:45;;;;;;;5.93;3.58;;;;;;;19.75;60.25;99305.50;4380327;32;20113;-87
2023/06/09 03:03:14;;;;;;;6.93;3.85;;;;;;;19.58;60.24;99305.94;4395769;32;20090;-86
2023/06/09 03:05:44;;;;;;;8.88;3.80;;;;;;;19.73;60.25;99296.00;4382967;32;20153;-86
2023/06/09 03:08:09;;;;;;;6.37;3.80;;;;;;;19.74;60.24;99295.06;4409351;32;20116;-86
2023/06/09 03:10:35;;;;;;;6.22;3.70;;;;;;;19.54;60.25;99300.06;4395541;32;20390;-86
2023/06/09 03:13:00;;;;;;;6.05;3.85;;;;;;;19.41;60.23;99295.81;4395301;32;20094;-86
2023/06/09 03:15:25;;;;;;;5.85;3.83;;;;;;;19.39;60.24;99298.53;4395066;32;20114;-86
2023/06/09 03:17:51;;;;;;;9.77;3.78;;;;;;;19.64;60.25;99292.28;4380464;32;20173;-87
2023/06/09 03:20:19;;;;;;;5.62;3.53;;;;;;;19.68;60.24;99298.16;4405963;32;20105;-86
2023/06/09 03:22:45;;;;;;;5.28;3.50;;;;;;;19.74;60.25;99290.59;4383504;32;20124;-87
2023/06/09 03:25:11;;;;;;;7.55;3.65;;;;;;;19.62;60.23;99281.81;4383042;32;20432;-87
2023/06/09 03:27:37;;;;;;;8.75;4.00;;;;;;;19.60;60.24;99283.72;4395794;32;20195;-86
2023/06/09 03:30:03;;;;;;;5.95;4.15;;;;;;;19.59;60.24;99283.84;4395770;32;20442;-86
2023/06/09 03:32:29;;;;;;;4.78;3.60;;;;;;;19.58;60.24;99288.28;4414075;32;20185;-86
2023/06/09 03:34:55;;;;;;;7.50;3.92;;;;;;;19.73;60.25;99288.09;4394774;32;20102;-86
2023/06/09 03:37:20;;;;;;;10.75;4.35;;;;;;;19.63;60.25;99293.22;4395231;32;20387;-87
2023/06/09 03:39:45;;;;;;;6.22;4.37;;;;;;;19.54;60.24;99296.56;4395479;32;20200;-87
2023/06/09 03:42:11;;;;;;;7.85;4.60;;;;;;;19.50;60.23;99293.28;4402769;32;20090;-88
2023/06/09 03:44:37;;;;;;;6.65;4.45;;;;;;;19.50;60.23;99301.22;4408515;32;33503;-88
2023/06/09 03:47:02;;;;;;;5.35;3.85;;;;;;;19.60;60.24;99299.56;4395489;32;20208;-88
2023/06/09 03:49:27;;;;;;;7.22;4.07;;;;;;;19.64;60.25;99297.56;4395306;32;20372;-88
2023/06/09 03:51:53;;;;;;;6.15;3.75;;;;;;;19.74;60.25;99290.59;4395165;32;20098;-89
2023/06/09 03:54:18;;;;;;;5.28;3.45;;;;;;;19.68;60.24;99291.09;4394885;32;27724;-88
2023/06/09 03:56:44;;;;;;;8.45;3.17;;;;;;;19.87;60.26;99286.06;4394718;32;20110;-88
2023/06/09 03:59:09;;;;;;;5.93;3.92;;;;;;;20.11;60.27;99287.72;4395022;32;20097;-88
2023/06/09 04:01:35;;;;;;;4.97;3.10;;;;;;;20.11;60.27;99296.53;4394336;32;20112;-87
2023/06/09 04:04:00;;;;;;;6.50;2.95;;;;;;;19.99;60.26;99299.28;4408799;32;20158;-86
2023/06/09 04:06:26;;;;;;;4.87;3.28;;;;;;;19.95;60.26;99301.31;4408792;32;20156;-87
2023/06/09 04:08:51;;;;;;;5.82;3.65;;;;;;;19.98;60.26;99301.06;4394948;32;20114;-86
2023/06/09 04:11:17;;;;;;;5.93;3.45;;;;;;;19.77;60.25;99311.50;4382266;32;20096;-86
2023/06/09 04:13:42;;;;;;;5.15;3.60;;;;;;;19.70;60.24;99320.03;4366720;32;28224;-86
2023/06/09 04:16:08;;;;;;;6.25;3.40;;;;;;;19.63;60.24;99315.19;4405904;32;20459;-86
2023/06/09 04:18:33;;;;;;;5.97;4.03;;;;;;;19.79;60.26;99314.03;4395116;32;20175;-86
2023/06/09 04:20:58;;;;;;;7.97;3.83;;;;;;;20.01;60.27;99308.75;4394175;32;25856;-85
2023/06/09 04:23:27;;;;;;;5.50;3.62;;;;;;;20.04;60.27;99310.31;4393721;32;20138;-85
2023/06/09 04:25:53;;;;;;;5.07;3.40;;;;;;;20.02;60.27;99305.16;4395160;32;20463;-88
2023/06/09 04:28:18;;;;;;;10.80;3.50;;;;;;;19.99;60.26;99315.13;4394960;32;20118;-86
2023/06/09 04:30:44;;;;;;;7.05;2.92;;;;;;;19.96;60.26;99312.72;4394413;32;20140;-86
2023/06/09 04:33:09;;;;;;;8.15;3.05;;;;;;;19.97;60.26;99320.53;4394567;32;20375;-86
2023/06/09 04:35:35;;;;;;;7.82;3.35;;;;;;;19.89;60.25;99320.28;4394556;32;20400;-86
2023/06/09 04:38:01;;;;;;;5.28;3.00;;;;;;;19.58;60.24;99335.81;4394629;32;20165;-85
2023/06/09 04:40:27;;;;;;;5.93;3.00;;;;;;;19.58;60.24;99332.34;4394653;32;20447;-83
2023/06/09 04:42:57;;;;;;;4.03;2.87;;;;;;;19.29;60.22;99326.56;4408217;32;20106;-83
2023/06/09 04:45:33;;;;;;;4.28;2.87;;;;;;;19.41;60.24;99338.87;4394843;32;20101;-84
2023/06/09 04:47:59;;;;;;;6.95;2.65;;;;;;;19.41;60.24;99346.78;4395182;32;20210;-84
2023/06/09 04:50:33;;;;;;;7.32;2.72;;;;;;;19.40;60.23;99339.84;4408570;32;20090;-83
2023/06/09 04:53:03;;;;;;;7.78;3.47;;;;;;;19.31;60.23;99349.25;4408397;32;20098;-83
2023/06/09 04:55:29;;;;;;;8.68;3.92;;;;;;;19.45;60.23;99344.75;4395295;32;20453;-84
2023/06/09 04:57:56;;;;;;;6.22;3.40;;;;;;;19.44;60.23;99343.91;4408550;32;20098;-84
2023/06/09 05:00:26;;;;;;;4.15;2.70;;;;;;;19.63;60.24;99354.78;4394370;32;20181;-82
2023/06/09 05:02:53;;;;;;;4.45;2.87;;;;;;;19.78;60.25;99360.72;4394699;32;20109;-83
2023/06/09 05:05:19;;;;;;;7.03;2.85;;;;;;;19.72;60.25;99355.91;4394420;32;20118;-82
2023/06/09 05:07:44;;;;;;;4.18;2.92;;;;;;;19.85;60.26;99351.34;4408292;32;20098;-83
2023/06/09 05:10:10;;;;;;;6.90;3.30;;;;;;;19.93;60.25;99361.34;4393284;32;20114;-83
2023/06/09 05:12:36;;;;;;;4.03;2.83;;;;;;;19.87;60.25;99367.09;4408268;32;20651;-83
2023/06/09 05:15:03;;;;;;;7.60;3.40;;;;;;;19.91;60.26;99364.12;4394137;32;20129;-83
2023/06/09 05:17:28;;;;;;;4.50;2.53;;;;;;;20.11;60.27;99362.59;4407421;32;20098;-82
2023/06/09 05:19:53;;;;;;;7.62;3.60;;;;;;;20.30;60.28;99359.34;4392524;32;23544;-83
2023/06/09 05:22:19;;;;;;;5.07;3.28;;;;;;;20.37;60.28;99360.56;4405860;32;29689;-83
2023/06/09 05:24:44;;;;;;;7.78;2.90;;;;;;;20.56;60.30;99361.75;4406354;32;20091;-81
2023/06/09 05:27:10;;;;;;;5.60;2.80;;;;;;;20.66;60.29;99360.09;4392406;32;20371;-83
2023/06/09 05:29:37;;;;;;;6.12;3.45;;;;;;;20.70;60.29;99353.56;4392597;32;20093;-83
2023/06/09 05:32:03;;;;;;;7.80;3.10;;;;;;;20.86;60.30;99358.50;4392042;32;20637;-83
2023/06/09 05:34:29;;;;;;;3.58;2.72;;;;;;;20.72;60.30;99356.94;4406293;32;20102;-82
2023/06/09 05:36:55;;;;;;;6.62;2.90;;;;;;;20.75;60.30;99354.03;4392544;32;20106;-82
2023/06/09 05:39:20;;;;;;;5.22;2.90;;;;;;;20.80;60.30;99362.44;4392023;32;20133;-82
2023/06/09 05:41:46;;;;;;;6.75;3.00;;;;;;;20.94;60.30;99358.69;4406082;32;20192;-83
2023/06/09 05:44:11;;;;;;;8.27;2.65;;;;;;;21.14;60.32;99353.47;4405302;32;30643;-83
2023/06/09 05:46:37;;;;;;;6.40;2.30;;;;;;;20.91;60.30;99343.91;4405632;32;24060;-84
2023/06/09 05:49:03;;;;;;;3.55;2.50;;;;;;;21.01;60.31;99344.84;4406569;32;20081;-85
2023/06/09 05:51:28;;;;;;;4.75;3.10;;;;;;;20.83;60.30;99343.72;4391545;32;20129;-85
2023/06/09 05:53:54;;;;;;;5.55;2.50;;;;;;;20.90;60.30;99344.03;4392012;32;27198;-86
2023/06/09 05:56:19;;;;;;;5.07;2.45;;;;;;;20.93;60.30;99349.91;4392122;32;20169;-83
2023/06/09 05:58:45;;;;;;;6.70;2.97;;;;;;;21.01;60.31;99352.78;4380475;32;20108;-84
2023/06/09 06:01:12;;;;;;;6.37;2.55;;;;;;;21.07;60.31;99357.59;4395250;32;20229;-84
2023/06/09 06:03:38;;;;;;;4.12;2.67;;;;;;;21.33;60.34;99359.94;4395229;32;20189;-84
2023/06/09 06:06:04;;;;;;;3.83;2.50;;;;;;;21.43;60.34;99361.69;4408253;32;20102;-84
2023/06/09 06:08:29;;;;;;;3.92;2.78;;;;;;;21.59;60.34;99350.66;4409152;32;22727;-84
2023/06/09 06:10:55;;;;;;;3.97;2.33;;;;;;;21.45;60.34;99349.16;4395844;32;20395;-84
2023/06/09 06:13:20;;;;;;;4.85;2.58;;;;;;;21.61;60.34;99346.06;4395403;32;20145;-84
2023/06/09 06:15:45;;;;;;;6.43;3.03;;;;;;;21.53;60.33;99343.25;4395424;32;20113;-84
2023/06/09 06:18:11;;;;;;;5.55;3.22;;;;;;;21.55;60.34;99351.91;4409179;32;20081;-84
2023/06/09 06:20:36;;;;;;;6.43;4.07;;;;;;;21.54;60.34;99352.84;4395139;32;20132;-83
2023/06/09 06:23:02;;;;;;;6.22;4.28;;;;;;;21.63;60.34;99360.03;4395428;32;20106;-84
2023/06/09 06:25:28;;;;;;;10.15;3.97;;;;;;;21.62;60.34;99368.94;4394109;32;20124;-84
2023/06/09 06:27:55;;;;;;;6.55;4.05;;;;;;;21.58;60.34;99367.53;4395645;32;20707;-84
2023/06/09 06:30:20;;;;;;;6.40;4.60;;;;;;;21.59;60.35;99376.31;4409212;32;20117;-84
2023/06/09 06:32:52;;;;;;;7.97;4.32;;;;;;;21.58;60.34;99378.13;4395379;32;20154;-84
2023/06/09 06:35:28;;;;;;;10.07;4.47;;;;;;;21.89;60.36;99364.94;4409527;32;20835;-84
2023/06/09 06:37:54;;;;;;;8.40;5.07;;;;;;;21.79;60.35;99369.34;4409556;32;20086;-84
2023/06/09 06:40:19;;;;;;;9.80;4.85;;;;;;;21.87;60.35;99366.88;4382898;32;20082;-84
2023/06/09 06:42:44;;;;;;;9.88;4.60;;;;;;;21.78;60.35;99370.31;4395572;32;20101;-85
2023/06/09 06:45:10;;;;;;;11.68;4.95;;;;;;;21.80;60.36;99369.22;4383255;32;20146;-84
2023/06/09 06:47:35;;;;;;;9.65;5.47;;;;;;;21.75;60.35;99372.22;4409474;32;20105;-84
2023/06/09 06:50:01;;;;;;;12.02;5.10;;;;;;;21.90;60.36;99379.84;4409434;32;20126;-84
2023/06/09 06:52:27;;;;;;;8.00;4.60;;;;;;;21.87;60.35;99383.63;4395869;32;20103;-84
2023/06/09 06:54:52;;;;;;;10.27;5.18;;;;;;;22.18;60.36;99389.81;4409626;32;20113;-84
2023/06/09 06:57:18;;;;;;;14.07;5.35;;;;;;;22.00;60.36;99396.66;4395757;32;20408;-84
2023/06/09 06:59:43;;;;;;;8.55;5.72;;;;;;;22.22;60.38;99390.38;4394961;32;23320;-84
2023/06/09 07:02:10;;;;;;;9.13;5.57;;;;;;;22.16;60.37;99390.91;4382902;32;20377;-85
2023/06/09 07:04:36;;;;;;;10.13;5.55;;;;;;;22.12;60.37;99387.69;4395526;32;20136;-84
2023/06/09 07:07:02;;;;;;;9.98;6.10;;;;;;;22.22;60.38;99383.28;4395399;32;20090;-84
2023/06/09 07:09:28;;;;;;;11.68;5.97;;;;;;;22.12;60.37;99387.69;4409068;32;20427;-84
2023/06/09 07:11:53;;;;;;;11.68;6.35;;;;;;;22.33;60.39;99383.22;4395260;32;20110;-84
2023/06/09 07:14:18;;;;;;;10.77;6.40;;;;;;;22.52;60.39;99381.63;4395511;32;20097;-84
2023/06/09 07:16:44;;;;;;;10.00;6.85;;;;;;;22.41;60.38;99384.34;4395345;32;20090;-84
2023/06/09 07:19:10;;;;;;;10.32;7.22;;;;;;;22.39;60.38;99383.63;4395363;32;20134;-84
2023/06/09 07:21:35;;;;;;;14.48;7.57;;;;;;;22.51;60.39;99390.56;4409221;32;20443;-84
2023/06/09 07:24:01;;;;;;;13.85;7.43;;;;;;;22.90;60.41;99384.41;4395480;32;20406;-84
2023/06/09 07:26:27;;;;;;;8.90;7.37;;;;;;;22.73;60.40;99392.16;4409234;32;20438;-85
2023/06/09 07:28:52;;;;;;;14.60;7.65;;;;;;;22.80;60.40;99388.84;4395222;32;20158;-83
2023/06/09 07:31:17;;;;;;;14.45;8.60;;;;;;;22.97;60.42;99384.72;4408589;32;24074;-85
2023/06/09 07:33:43;;;;;;;21.80;8.07;;;;;;;23.13;60.43;99378.84;4395061;32;20862;-85
2023/06/09 07:36:11;;;;;;;10.98;8.13;;;;;;;23.17;60.42;99380.25;4409344;32;20112;-85
2023/06/09 07:38:42;;;;;;;13.13;8.27;;;;;;;23.09;60.42;99373.00;4389333;32;20090;-85
2023/06/09 07:41:08;;;;;;;8.90;7.57;;;;;;;23.13;60.43;99376.19;4409291;32;20214;-84
2023/06/09 07:43:36;;;;;;;12.20;6.75;;;;;;;23.14;60.42;99375.22;4395228;32;20403;-85
2023/06/09 07:46:01;;;;;;;8.35;5.95;;;;;;;23.24;60.43;99376.09;4395450;32;20474;-85
2023/06/09 07:48:27;;;;;;;9.63;4.22;;;;;;;23.05;60.42;99370.75;4408996;32;20101;-85
2023/06/09 07:50:52;;;;;;;4.03;3.10;;;;;;;23.05;60.42;99371.59;4395490;32;20102;-85
2023/06/09 07:53:18;;;;;;;4.28;3.17;;;;;;;22.72;60.40;99372.75;4408781;32;21130;-84
2023/06/09 07:55:44;;;;;;;7.80;3.97;;;;;;;22.79;60.40;99368.56;4409246;32;20482;-85
2023/06/09 07:58:10;;;;;;;9.27;4.68;;;;;;;22.70;60.40;99361.41;4409230;32;20082;-85
2023/06/09 08:00:35;;;;;;;7.87;4.28;;;;;;;22.66;60.40;99362.66;4408874;32;20124;-85
2023/06/09 08:03:04;;;;;;;6.68;4.90;;;;;;;22.76;60.41;99360.87;4395049;32;20120;-85
2023/06/09 08:05:30;;;;;;;9.07;4.78;;;;;;;23.01;60.42;99350.78;4395891;32;20081;-84
2023/06/09 08:07:57;;;;;;;8.63;4.47;;;;;;;22.85;60.41;99362.75;4367614;32;20121;-85
2023/06/09 08:10:22;;;;;;;6.20;5.10;;;;;;;22.78;60.40;99358.94;4395060;32;20128;-85
2023/06/09 08:12:48;;;;;;;5.90;4.82;;;;;;;22.86;60.41;99366.25;4395069;32;20150;-85
2023/06/09 08:15:14;;;;;;;6.62;4.75;;;;;;;23.00;60.41;99357.91;4408912;32;20209;-85
2023/06/09 08:17:39;;;;;;;8.48;4.85;;;;;;;23.09;60.42;99359.72;4408878;32;20140;-85
2023/06/09 08:20:05;;;;;;;9.50;5.43;;;;;;;22.97;60.42;99352.87;4407381;32;20146;-84
2023/06/09 08:22:31;;;;;;;10.25;5.90;;;;;;;22.92;60.41;99361.22;4407970;32;20117;-85
2023/06/09 08:24:56;;;;;;;9.30;6.07;;;;;;;23.00;60.42;99357.06;4408689;32;20188;-85
2023/06/09 08:27:22;;;;;;;8.05;5.22;;;;;;;23.13;60.43;99357.62;4395066;32;20120;-84
2023/06/09 08:29:49;;;;;;;8.02;6.45;;;;;;;23.25;60.43;99362.69;4408645;32;20094;-85
2023/06/09 08:32:15;;;;;;;8.52;6.75;;;;;;;23.25;60.43;99360.00;4395106;32;20114;-85
2023/06/09 08:34:41;;;;;;;8.63;6.32;;;;;;;23.30;60.44;99358.75;4367367;32;20207;-85
2023/06/09 08:37:09;;;;;;;13.70;6.87;;;;;;;23.35;60.43;99361.81;4404449;32;20133;-85
2023/06/09 08:39:34;;;;;;;9.98;7.03;;;;;;;23.26;60.42;99364.34;4395029;32;20110;-84
2023/06/09 08:42:03;;;;;;;10.48;7.78;;;;;;;23.51;60.43;99362.94;4394694;32;20105;-85
2023/06/09 08:44:28;;;;;;;9.77;7.45;;;;;;;23.65;60.45;99368.81;4382328;32;20475;-85
2023/06/09 08:46:54;;;;;;;10.93;7.20;;;;;;;23.75;60.46;99365.19;4394741;32;20144;-85
2023/06/09 08:49:19;;;;;;;7.82;6.15;;;;;;;23.86;60.46;99369.50;4394129;32;20137;-82
2023/06/09 08:51:45;;;;;;;9.93;6.65;;;;;;;23.92;60.46;99373.44;4394647;32;20151;-83
2023/06/09 08:54:13;;;;;;;11.38;7.40;;;;;;;23.89;60.46;99371.88;4394574;32;20074;-84
2023/06/09 08:56:38;;;;;;;9.82;7.25;;;;;;;24.02;60.47;99371.56;4408359;32;20117;-84
2023/06/09 08:59:04;;;;;;;10.27;6.35;;;;;;;24.29;60.48;99370.81;4393624;32;32700;-84
2023/06/09 09:01:31;;;;;;;6.68;4.93;;;;;;;24.33;60.49;99374.88;4394297;32;20126;-83
2023/06/09 09:03:56;;;;;;;6.72;4.62;;;;;;;24.45;60.48;99373.72;4394745;32;20592;-83
2023/06/09 09:06:22;;;;;;;8.68;4.62;;;;;;;24.54;60.50;99379.97;4407547;32;29161;-84
2023/06/09 09:08:47;;;;;;;9.77;5.00;;;;;;;24.41;60.49;99373.16;4407914;32;20115;-83
2023/06/09 09:11:13;;;;;;;5.55;4.15;;;;;;;24.41;60.49;99375.00;4407465;32;28677;-83
2023/06/09 09:13:38;;;;;;;6.18;4.35;;;;;;;24.49;60.49;99378.59;4394301;32;20427;-83
2023/06/09 09:16:03;;;;;;;6.12;4.82;;;;;;;24.77;60.51;99376.75;4394401;32;20166;-84
2023/06/09 09:18:38;;;;;;;10.77;5.97;;;;;;;24.71;60.51;99372.03;4408040;32;20124;-84
2023/06/09 09:21:03;;;;;;;9.57;4.55;;;;;;;24.85;60.52;99372.53;4382447;32;20106;-84
2023/06/09 09:23:34;;;;;;;12.07;5.20;;;;;;;24.68;60.51;99372.34;4394124;32;20139;-83
2023/06/09 09:26:00;;;;;;;8.23;4.50;;;;;;;24.70;60.51;99380.19;4381902;32;20120;-84
2023/06/09 09:28:26;;;;;;;5.28;3.70;;;;;;;24.64;60.50;99373.63;4394485;32;20102;-84
2023/06/09 09:30:54;;;;;;;9.35;3.87;;;;;;;24.79;60.51;99376.63;4377252;32;20117;-84
2023/06/09 09:33:29;;;;;;;7.65;3.87;;;;;;;24.88;60.51;99377.56;4393316;32;20149;-85
2023/06/09 09:35:56;;;;;;;5.95;3.78;;;;;;;24.91;60.51;99378.09;4383727;32;20110;-85
2023/06/09 09:38:25;;;;;;;4.95;3.72;;;;;;;24.88;60.52;99375.75;4396120;32;20106;-84
2023/06/09 09:40:52;;;;;;;3.67;3.20;;;;;;;25.11;60.53;99380.69;4395805;32;20102;-84
2023/06/09 09:43:18;;;;;;;5.50;3.37;;;;;;;24.93;60.52;99380.59;4408351;32;20163;-83
2023/06/09 09:45:45;;;;;;;5.60;3.12;;;;;;;25.18;60.53;99376.41;4383519;32;20129;-85
2023/06/09 09:48:12;;;;;;;5.15;3.45;;;;;;;25.20;60.53;99369.94;4382997;32;20400;-84
2023/06/09 09:50:38;;;;;;;19.20;5.18;;;;;;;25.02;60.53;99371.75;4409702;32;20163;-84
2023/06/09 09:53:04;;;;;;;15.93;5.20;;;;;;;25.20;60.53;99371.78;4408260;32;20109;-85
2023/06/09 09:55:31;;;;;;;5.97;3.55;;;;;;;25.14;60.52;99370.56;4395899;32;20121;-84
2023/06/09 09:57:57;;;;;;;6.85;3.70;;;;;;;25.23;60.54;99374.13;4396287;32;20102;-84
2023/06/09 10:00:23;;;;;;;8.50;3.95;;;;;;;25.22;60.53;99367.13;4409672;32;20166;-84
2023/06/09 10:02:48;;;;;;;5.50;3.65;;;;;;;24.88;60.51;99374.91;4395740;32;20168;-84
2023/06/09 10:05:15;;;;;;;5.43;3.62;;;;;;;24.88;60.52;99370.41;4394503;32;30261;-84
2023/06/09 10:07:42;;;;;;;5.90;3.65;;;;;;;24.95;60.52;99371.47;4370976;32;20090;-84
2023/06/09 10:10:11;;;;;;;4.60;3.10;;;;;;;25.02;60.52;99366.41;4383467;32;20447;-85
2023/06/09 10:12:37;;;;;;;5.10;3.00;;;;;;;25.01;60.53;99364.75;4396087;32;20511;-85
2023/06/09 10:15:04;;;;;;;4.28;2.83;;;;;;;24.98;60.52;99365.84;4396021;32;20094;-85
2023/06/09 10:17:29;;;;;;;5.12;3.83;;;;;;;25.00;60.53;99363.06;4395771;32;20117;-85
2023/06/09 10:19:55;;;;;;;3.70;2.90;;;;;;;25.17;60.54;99367.59;4370554;32;20137;-83
2023/06/09 10:22:20;;;;;;;6.18;3.58;;;;;;;25.40;60.55;99362.63;4395702;32;20710;-83
2023/06/09 10:24:46;;;;;;;5.60;3.28;;;;;;;25.53;60.55;99359.56;4409615;32;20104;-84
2023/06/09 10:27:13;;;;;;;4.07;2.70;;;;;;;25.49;60.55;99347.56;4395692;32;20094;-84
2023/06/09 10:29:38;;;;;;;5.28;2.80;;;;;;;25.33;60.54;99350.94;4382983;32;20118;-84
2023/06/09 10:32:04;;;;;;;3.40;3.10;;;;;;;25.30;60.54;99346.72;4409439;32;20435;-84
2023/06/09 10:34:32;;;;;;;4.68;3.15;;;;;;;25.39;60.54;99350.31;4395638;32;20128;-84
2023/06/09 10:36:57;;;;;;;3.22;2.72;;;;;;;25.34;60.54;99347.28;4409630;32;20168;-82
2023/06/09 10:39:24;;;;;;;5.57;2.70;;;;;;;25.49;60.56;99348.38;4395594;32;20130;-84
2023/06/09 10:41:59;;;;;;;3.67;2.47;;;;;;;25.55;60.56;99353.13;4395729;32;20082;-84
2023/06/09 10:44:39;;;;;;;4.32;2.47;;;;;;;25.41;60.55;99351.00;4383031;32;20150;-83
2023/06/09 10:47:05;;;;;;;4.05;2.40;;;;;;;25.60;60.56;99348.16;4395850;32;20176;-84
2023/06/09 10:49:37;;;;;;;4.00;2.45;;;;;;;25.55;60.56;99350.47;4395655;32;20451;-85
2023/06/09 10:52:04;;;;;;;3.53;1.98;;;;;;;25.80;60.57;99350.69;4409250;32;20360;-83
2023/06/09 10:54:30;;;;;;;3.08;1.90;;;;;;;25.73;60.57;99345.09;4383104;32;20087;-83
2023/06/09 10:57:06;;;;;;;2.42;1.98;;;;;;;25.80;60.57;99342.69;4395439;32;20131;-84
2023/06/09 10:59:32;;;;;;;11.80;2.83;;;;;;;25.82;60.56;99338.03;4409189;32;20098;-84
2023/06/09 11:02:03;;;;;;;14.80;2.90;;;;;;;25.90;60.57;99338.06;4409294;32;20116;-83
2023/06/09 11:04:37;;;;;;;2.42;1.85;;;;;;;25.97;60.57;99329.28;4409289;32;20086;-85
2023/06/09 11:07:38;;;;;;;3.30;2.10;;;;;;;26.07;60.58;99323.00;4407849;32;20118;-84
2023/06/09 11:10:07;;;;;;;4.85;2.30;;;;;;;26.03;60.58;99319.81;4386873;32;20179;-84
2023/06/09 11:12:42;;;;;;;2.90;1.87;;;;;;;26.20;60.59;99318.06;4409275;32;20112;-84
2023/06/09 11:15:09;;;;;;;3.03;2.00;;;;;;;26.33;60.59;99314.97;4409088;32;20086;-83
2023/06/09 11:17:39;;;;;;;2.58;2.08;;;;;;;26.33;60.60;99315.81;4383144;32;20110;-84
2023/06/09 11:20:11;;;;;;;4.28;2.17;;;;;;;26.20;60.59;99310.06;4409062;32;20131;-84
2023/06/09 11:22:43;;;;;;;5.05;1.60;;;;;;;26.30;60.59;99316.97;4409122;32;20451;-84
2023/06/09 11:25:30;;;;;;;3.72;2.42;;;;;;;26.21;60.59;99312.56;4409037;32;20468;-84
2023/06/09 11:27:55;;;;;;;3.22;2.00;;;;;;;26.41;60.61;99315.03;4409082;32;20386;-83
2023/06/09 11:30:22;;;;;;;4.65;2.85;;;;;;;26.56;60.62;99313.44;4408995;32;20082;-83
2023/06/09 11:32:48;;;;;;;2.95;2.25;;;;;;;26.81;60.62;99304.47;4382889;32;20093;-84